Pflugerville's Hourly Summary for Monday, July 9, 2018
Hour Temp
(f)
RH
(%)
Solar Rad.
(MJ/m2)
Rainfall
(in)
Wind
(mph)
7/9/2018 12:00 AM 76 91 0 0 2.29
7/9/2018 1:00 AM 75 93 0 0 2.29
7/9/2018 2:00 AM 74 93 0 0 1.49
7/9/2018 3:00 AM 74 93 0 0 2.46
7/9/2018 4:00 AM 73 94 0 0 2.46
7/9/2018 5:00 AM 73 95 0 0 0.64
7/9/2018 6:00 AM 73 95 0 0 0
7/9/2018 7:00 AM 73 97 0.13 0.01 0.21
7/9/2018 8:00 AM 73 95 0.13 1 3.8
7/9/2018 9:00 AM 72 99 0.13 0.05 3.8
7/9/2018 10:00 AM 72 99 0.13 0.03 0.32
7/9/2018 11:00 AM 79 90 2.18 0 1.47
7/9/2018 12:00 PM 79 76 2.18 0.33 2.78
7/9/2018 1:00 PM 78 88 0.93 0.02 6.89
7/9/2018 2:00 PM 74 91 0.21 0.03 6.89
7/9/2018 3:00 PM 73 97 0.15 0.05 1.26
7/9/2018 4:00 PM 74 97 0.46 0.02 2.59
7/9/2018 5:00 PM 75 97 0.6 0 4.02
7/9/2018 6:00 PM 75 92 0.6 0 4.32
7/9/2018 7:00 PM 75 91 0.57 0 4.79
7/9/2018 8:00 PM 74 91 0.32 0 4.79
7/9/2018 9:00 PM 73 96 0.01 0 3.05
7/9/2018 10:00 PM 73 97 0 0 3.44
7/9/2018 11:00 PM 72 98 0 0 3.44
Data Summary 74 93 8.73 1.54 2.90